createdAt,value
2018-02-06T00:01:30.700Z,84.98
2018-02-06T00:03:58.171Z,84.87
2018-02-06T00:06:25.648Z,85.39
2018-02-06T00:08:53.132Z,85.08
2018-02-06T00:11:20.974Z,85.08
2018-02-06T00:13:48.546Z,85.00
2018-02-06T00:16:16.024Z,85.35
2018-02-06T00:18:43.509Z,85.83
2018-02-06T00:21:10.984Z,85.54
2018-02-06T00:23:38.465Z,85.69
2018-02-06T00:26:05.959Z,85.75
2018-02-06T00:28:33.449Z,85.87
2018-02-06T00:31:00.926Z,86.06
2018-02-06T00:33:28.410Z,85.56
2018-02-06T00:35:55.905Z,86.00
2018-02-06T00:38:23.405Z,86.00
2018-02-06T00:40:50.861Z,86.19
2018-02-06T00:43:18.335Z,86.10
2018-02-06T00:45:45.812Z,85.76
2018-02-06T00:48:13.321Z,86.04
2018-02-06T00:50:40.797Z,85.73
2018-02-06T00:53:08.375Z,86.02
2018-02-06T00:55:35.965Z,85.83
2018-02-06T00:58:03.429Z,85.88
2018-02-06T01:00:30.905Z,86.08
2018-02-06T01:02:58.434Z,86.26
2018-02-06T01:05:25.914Z,86.58
2018-02-06T01:07:53.488Z,86.25
2018-02-06T01:10:20.973Z,86.33
2018-02-06T01:12:48.440Z,86.53
2018-02-06T01:15:15.992Z,86.43
2018-02-06T01:17:43.476Z,86.49
2018-02-06T01:20:11.040Z,86.53
2018-02-06T01:22:38.613Z,86.46
2018-02-06T01:25:06.100Z,86.15
2018-02-06T01:27:33.663Z,86.30
2018-02-06T01:30:01.232Z,86.25
2018-02-06T01:32:36.220Z,86.45
2018-02-06T01:35:03.740Z,86.59
2018-02-06T01:37:31.214Z,86.69
2018-02-06T01:39:58.808Z,86.80
2018-02-06T04:39:28.779Z,87.00
2018-02-06T04:41:56.255Z,87.22
2018-02-06T04:44:23.720Z,87.11
2018-02-06T04:46:51.189Z,87.47
2018-02-06T04:49:18.645Z,86.92
2018-02-06T04:51:46.127Z,86.79
2018-02-06T04:54:13.572Z,86.47
2018-02-06T04:56:41.028Z,86.47
2018-02-06T04:59:08.511Z,87.02
2018-02-06T05:01:36.032Z,86.89
2018-02-06T05:04:03.514Z,87.16
2018-02-06T05:06:30.971Z,87.13
2018-02-06T05:08:58.444Z,86.66
2018-02-06T05:11:25.991Z,86.91
2018-02-06T05:13:53.473Z,86.95
2018-02-06T05:16:20.954Z,87.04
2018-02-06T05:18:48.488Z,87.21
2018-02-06T05:21:15.984Z,87.50
2018-02-06T05:23:43.439Z,87.46
2018-02-06T05:26:10.917Z,87.50
2018-02-06T05:28:38.393Z,87.54
2018-02-06T05:31:05.944Z,87.46
2018-02-06T05:33:33.440Z,87.64
2018-02-06T05:36:00.963Z,87.99
2018-02-06T05:38:28.463Z,88.22
2018-02-06T05:40:55.991Z,87.90
2018-02-06T05:43:23.460Z,88.28
2018-02-06T05:45:50.921Z,88.53
2018-02-06T05:48:18.417Z,92.48
2018-02-06T05:50:45.893Z,91.88
2018-02-06T05:53:13.382Z,87.60
2018-02-06T05:55:40.881Z,88.96
2018-02-06T05:58:08.372Z,87.53
2018-02-06T06:00:35.896Z,87.35
2018-02-06T06:03:03.349Z,84.52
2018-02-06T06:05:30.840Z,84.18
2018-02-06T06:07:58.308Z,84.71
2018-02-06T06:10:26.023Z,85.86
2018-02-06T06:12:53.596Z,86.19
2018-02-06T06:15:21.073Z,86.66
2018-02-06T06:17:48.594Z,86.81
2018-02-06T06:20:16.113Z,86.87
2018-02-06T06:22:43.608Z,86.82
2018-02-06T06:25:11.097Z,87.02
2018-02-06T06:27:38.564Z,86.82
2018-02-06T06:30:06.161Z,86.90
2018-02-06T06:32:33.623Z,86.96
2018-02-06T06:35:01.140Z,86.89
2018-02-06T06:37:28.605Z,87.10
2018-02-06T06:39:56.080Z,86.42
2018-02-06T06:42:23.548Z,86.00
2018-02-06T06:44:51.072Z,86.24
2018-02-06T06:47:18.556Z,86.09
2018-02-06T06:49:46.061Z,85.90
2018-02-06T06:52:13.600Z,85.98
2018-02-06T06:54:41.160Z,85.73
2018-02-06T06:57:08.774Z,85.35
2018-02-06T06:59:37.105Z,84.90
2018-02-06T07:02:04.642Z,83.96
2018-02-06T07:04:32.126Z,82.19
2018-02-06T07:06:59.618Z,80.30
2018-02-06T07:09:27.215Z,78.95
2018-02-06T07:11:54.676Z,76.96
2018-02-06T07:14:22.231Z,74.91
2018-02-06T07:16:49.689Z,74.01
2018-02-06T07:19:17.187Z,72.90
2018-02-06T07:21:44.672Z,71.47
2018-02-06T07:24:12.216Z,70.05
2018-02-06T07:26:39.675Z,69.93
2018-02-06T07:29:07.164Z,68.96
2018-02-06T07:31:34.632Z,67.77
2018-02-06T07:34:02.097Z,67.08
2018-02-06T07:36:29.573Z,65.57
2018-02-06T07:38:57.033Z,64.89
2018-02-06T07:41:24.502Z,64.45
2018-02-06T07:43:51.954Z,63.98
2018-02-06T07:46:19.419Z,62.96
2018-02-06T07:48:46.885Z,62.16
2018-02-06T07:51:14.348Z,61.33
2018-02-06T07:53:41.845Z,60.02
2018-02-06T07:56:09.388Z,58.60
2018-02-06T07:58:36.831Z,58.50
2018-02-06T08:01:04.326Z,56.94
2018-02-06T08:03:31.828Z,57.08
2018-02-06T08:05:59.304Z,57.84
2018-02-06T08:08:26.872Z,57.73
2018-02-06T08:10:54.361Z,61.46
2018-02-06T08:13:21.819Z,63.31
2018-02-06T08:15:49.298Z,64.31
2018-02-06T08:18:16.762Z,64.45
2018-02-06T08:20:44.239Z,65.11
2018-02-06T08:23:11.719Z,61.35
2018-02-06T08:25:39.264Z,58.47
2018-02-06T08:28:06.732Z,56.11
2018-02-06T08:30:34.202Z,54.17
2018-02-06T08:33:01.684Z,50.79
2018-02-06T08:35:29.176Z,49.96
2018-02-06T08:37:56.705Z,49.91
2018-02-06T08:40:24.168Z,49.11
2018-02-06T08:42:51.666Z,49.56
2018-02-06T08:45:19.230Z,49.83
2018-02-06T08:47:46.807Z,51.22
2018-02-06T08:50:14.372Z,53.04
2018-02-06T08:52:41.846Z,53.77
2018-02-06T08:55:09.303Z,53.40
2018-02-06T08:57:36.784Z,54.73
2018-02-06T09:00:04.255Z,48.44
2018-02-06T09:02:31.732Z,49.19
2018-02-06T09:04:59.305Z,50.69
2018-02-06T09:07:26.831Z,49.67
2018-02-06T09:09:54.298Z,49.22
2018-02-06T09:12:21.749Z,49.95
2018-02-06T09:14:49.276Z,48.67
2018-02-06T09:17:16.745Z,50.91
2018-02-06T09:19:44.237Z,53.74
2018-02-06T09:22:11.708Z,54.72
2018-02-06T09:24:39.185Z,55.36
2018-02-06T09:27:06.667Z,56.66
2018-02-06T09:29:34.202Z,57.48
2018-02-06T09:32:01.772Z,59.38
2018-02-06T09:34:29.264Z,58.02
2018-02-06T09:36:56.721Z,58.98
2018-02-06T09:39:24.179Z,60.82
2018-02-06T09:41:51.672Z,62.16
2018-02-06T09:44:19.589Z,61.35
2018-02-06T09:46:47.066Z,61.64
2018-02-06T09:49:14.523Z,62.49
2018-02-06T09:51:42.024Z,63.35
2018-02-06T09:54:09.510Z,63.84
2018-02-06T09:56:36.982Z,63.04
2018-02-06T09:59:04.553Z,62.65
2018-02-06T10:01:32.125Z,62.61
2018-02-06T10:03:59.575Z,62.67
2018-02-06T10:06:27.040Z,62.57
2018-02-06T10:08:54.510Z,60.52
2018-02-06T10:11:21.972Z,62.42
2018-02-06T10:13:49.474Z,60.58
2018-02-06T10:16:16.953Z,59.40
2018-02-06T10:18:44.424Z,57.83
2018-02-06T10:21:11.901Z,56.66
2018-02-06T10:23:39.663Z,54.91
2018-02-06T10:26:07.145Z,56.04
2018-02-06T10:28:34.663Z,55.66
2018-02-06T10:31:02.137Z,54.74
2018-02-06T10:33:29.620Z,55.20
2018-02-06T10:35:57.119Z,56.05
2018-02-06T10:38:24.588Z,53.86
2018-02-06T10:40:52.145Z,55.30
2018-02-06T10:43:19.616Z,53.49
2018-02-06T10:45:47.457Z,54.65
2018-02-06T10:48:14.917Z,53.54
2018-02-06T10:50:42.370Z,52.39
2018-02-06T10:53:09.848Z,51.02
2018-02-06T10:55:37.326Z,50.73
2018-02-06T10:58:04.805Z,51.54
2018-02-06T11:00:32.268Z,51.73
2018-02-06T11:02:59.768Z,52.33
2018-02-06T11:05:27.260Z,55.97
2018-02-06T11:07:54.717Z,53.72
2018-02-06T11:10:22.199Z,55.16
2018-02-06T11:12:49.650Z,55.47
2018-02-06T11:15:17.135Z,56.05
2018-02-06T11:17:44.705Z,55.35
2018-02-06T11:20:12.159Z,56.27
2018-02-06T11:22:39.758Z,56.16
2018-02-06T11:25:07.272Z,57.04
2018-02-06T11:27:34.750Z,56.36
2018-02-06T11:30:02.370Z,57.86
2018-02-06T11:32:29.853Z,56.74
2018-02-06T11:34:57.407Z,57.44
2018-02-06T11:37:24.877Z,57.71
2018-02-06T11:39:52.356Z,57.96
2018-02-06T11:42:19.931Z,57.93
2018-02-06T11:44:47.396Z,57.24
2018-02-06T11:47:14.962Z,56.51
2018-02-06T11:49:42.465Z,57.16
2018-02-06T11:52:09.928Z,58.80
2018-02-06T11:54:37.404Z,60.08
2018-02-06T11:57:04.916Z,60.35
2018-02-06T11:59:32.364Z,61.25
2018-02-06T12:01:59.881Z,61.68
2018-02-06T12:04:27.375Z,61.04
2018-02-06T12:06:54.930Z,60.48
2018-02-06T12:09:22.508Z,58.88
2018-02-06T12:11:49.979Z,57.61
2018-02-06T12:14:17.469Z,56.49
2018-02-06T12:16:44.933Z,54.47
2018-02-06T12:19:12.421Z,54.27
2018-02-06T12:21:39.881Z,53.70
2018-02-06T12:24:07.368Z,55.15
2018-02-06T12:26:34.836Z,56.21
2018-02-06T12:29:02.301Z,55.76
2018-02-06T12:31:29.834Z,53.55
2018-02-06T12:33:57.410Z,54.34
2018-02-06T12:36:25.162Z,54.00
2018-02-06T12:38:52.683Z,52.16
2018-02-06T12:41:20.159Z,53.76
2018-02-06T12:43:47.619Z,52.66
2018-02-06T12:46:15.098Z,51.82
2018-02-06T12:48:42.652Z,52.52
2018-02-06T12:51:10.125Z,49.92
2018-02-06T12:53:37.658Z,50.54
2018-02-06T12:56:05.532Z,50.76
2018-02-06T12:58:33.043Z,51.15
2018-02-06T13:01:00.595Z,49.86
2018-02-06T13:03:28.079Z,51.61
2018-02-06T13:05:55.638Z,49.10
2018-02-06T13:08:23.134Z,51.31
2018-02-06T13:10:50.610Z,52.65
2018-02-06T13:13:18.169Z,51.39
2018-02-06T13:15:45.736Z,51.59
2018-02-06T13:18:13.297Z,51.01
2018-02-06T13:20:40.754Z,50.30
2018-02-06T13:23:08.235Z,50.42
2018-02-06T13:25:35.704Z,47.97
2018-02-06T13:28:03.175Z,49.21
2018-02-06T13:30:30.660Z,50.06
2018-02-06T13:32:58.211Z,50.89
2018-02-06T13:35:25.786Z,51.36
2018-02-06T13:37:53.251Z,49.50
2018-02-06T13:40:20.821Z,48.96
2018-02-06T13:42:48.277Z,49.41
2018-02-06T13:45:15.857Z,50.91
2018-02-06T13:47:43.329Z,50.62
2018-02-06T13:50:10.807Z,51.48
2018-02-06T13:52:38.311Z,52.88
2018-02-06T13:55:05.874Z,49.70
2018-02-06T14:00:27.169Z,48.40
2018-02-06T14:02:54.653Z,51.07
2018-02-06T14:05:22.113Z,50.88
2018-02-06T14:07:49.591Z,50.76
2018-02-06T14:10:17.043Z,52.04
2018-02-06T14:12:44.569Z,51.60
2018-02-06T14:15:12.014Z,51.30
2018-02-06T14:17:39.492Z,51.18
2018-02-06T14:20:06.942Z,51.17
2018-02-06T14:22:34.392Z,48.36
2018-02-06T14:25:01.856Z,49.69
2018-02-06T14:27:29.302Z,49.69
2018-02-06T14:29:56.783Z,49.43
2018-02-06T14:32:24.233Z,48.61
2018-02-06T14:34:51.709Z,46.87
2018-02-06T14:37:20.476Z,45.66
2018-02-06T14:39:47.947Z,46.84
2018-02-06T14:42:15.400Z,48.03
2018-02-06T14:44:42.863Z,48.61
2018-02-06T14:47:10.323Z,49.99
2018-02-06T14:49:37.773Z,50.87
2018-02-06T14:52:05.246Z,50.62
2018-02-06T14:54:32.703Z,52.41
2018-02-06T14:57:00.155Z,52.15
2018-02-06T14:59:27.636Z,52.12
2018-02-06T15:01:55.103Z,53.49
2018-02-06T15:04:22.572Z,54.09
2018-02-06T15:06:50.034Z,55.40
2018-02-06T15:09:17.475Z,55.20
2018-02-06T15:11:44.924Z,56.12
2018-02-06T15:14:12.395Z,56.07
2018-02-06T15:16:39.848Z,56.53
2018-02-06T15:19:07.320Z,56.79
2018-02-06T15:21:34.772Z,56.67
2018-02-06T15:24:02.257Z,57.39
2018-02-06T15:26:29.825Z,57.98
2018-02-06T15:28:57.293Z,59.24
2018-02-06T15:31:24.741Z,59.75
2018-02-06T15:33:52.229Z,60.06
2018-02-06T15:36:19.693Z,61.20
2018-02-06T15:38:47.133Z,61.95
2018-02-06T15:41:14.601Z,62.12
2018-02-06T15:43:42.044Z,62.32
2018-02-06T15:46:09.506Z,62.89
2018-02-06T15:48:36.960Z,63.35
2018-02-06T15:51:04.445Z,63.46
2018-02-06T15:53:31.946Z,63.94
2018-02-06T15:55:59.432Z,64.21
2018-02-06T15:58:26.913Z,64.23
2018-02-06T16:00:54.375Z,64.74
2018-02-06T16:03:21.844Z,64.84
2018-02-06T16:05:49.311Z,65.01
2018-02-06T16:08:16.784Z,65.40
2018-02-06T16:10:44.235Z,65.84
2018-02-06T16:13:11.721Z,65.64
2018-02-06T16:15:39.174Z,66.46
2018-02-06T16:18:06.655Z,66.77
2018-02-06T16:20:34.123Z,66.70
2018-02-06T16:23:01.590Z,67.01
2018-02-06T16:25:29.038Z,67.07
2018-02-06T16:27:56.551Z,67.08
2018-02-06T16:30:24.029Z,67.36
2018-02-06T16:32:51.522Z,67.52
2018-02-06T16:35:18.983Z,67.33
2018-02-06T16:37:46.472Z,67.97
2018-02-06T16:40:13.954Z,68.27
2018-02-06T16:42:41.417Z,68.79
2018-02-06T16:45:08.887Z,70.21
2018-02-06T16:47:36.498Z,70.96
2018-02-06T16:50:03.995Z,72.02
2018-02-06T16:52:31.547Z,71.55
2018-02-06T16:54:59.021Z,71.88
2018-02-06T16:57:26.509Z,72.19
2018-02-06T16:59:53.965Z,71.31
2018-02-06T17:02:33.345Z,71.25
2018-02-06T17:05:00.809Z,70.70
2018-02-06T17:07:28.275Z,71.85
2018-02-06T17:09:55.731Z,73.06
2018-02-06T17:12:27.521Z,74.35
2018-02-06T17:14:54.972Z,74.37
2018-02-06T17:17:22.445Z,73.04
2018-02-06T17:19:49.932Z,72.25
2018-02-06T17:22:17.404Z,72.43
2018-02-06T17:24:44.871Z,73.09
2018-02-06T17:27:12.423Z,72.47
2018-02-06T17:29:39.887Z,72.89
2018-02-06T17:32:07.371Z,72.79
2018-02-06T17:34:34.857Z,72.75
2018-02-06T17:37:02.323Z,74.28
2018-02-06T17:39:29.804Z,74.18
2018-02-06T17:41:57.272Z,73.89
2018-02-06T17:44:24.725Z,73.49
2018-02-06T17:46:52.236Z,74.49
2018-02-06T17:49:19.784Z,73.57
2018-02-06T17:51:47.515Z,73.11
2018-02-06T17:54:14.974Z,72.67
2018-02-06T17:56:42.484Z,72.57
2018-02-06T17:59:09.936Z,74.08
2018-02-06T18:01:37.428Z,74.83
2018-02-06T18:04:04.910Z,74.12
2018-02-06T18:06:32.465Z,74.48
2018-02-06T18:08:59.982Z,74.18
2018-02-06T18:11:27.451Z,73.44
2018-02-06T18:13:54.916Z,73.96
2018-02-06T18:16:22.371Z,74.17
2018-02-06T18:18:49.908Z,73.93
2018-02-06T18:21:17.392Z,73.23
2018-02-06T18:23:44.864Z,72.74
2018-02-06T18:26:12.352Z,73.67
2018-02-06T18:28:39.808Z,79.26
2018-02-06T18:31:07.473Z,72.34
2018-02-06T18:33:34.929Z,72.37
2018-02-06T18:36:02.392Z,72.38
2018-02-06T18:38:29.886Z,72.25
2018-02-06T18:40:57.478Z,72.03
2018-02-06T18:43:25.037Z,71.84
2018-02-06T18:45:52.549Z,71.90
2018-02-06T18:48:20.030Z,72.43
2018-02-06T18:50:47.494Z,72.25
2018-02-06T18:53:14.939Z,72.26
2018-02-06T18:55:42.500Z,72.04
2018-02-06T18:58:09.955Z,71.88
2018-02-06T19:00:37.436Z,71.68
2018-02-06T19:03:04.902Z,71.69
2018-02-06T19:05:32.394Z,71.51
2018-02-06T19:07:59.951Z,71.01
2018-02-06T19:10:27.419Z,71.14
2018-02-06T19:12:54.904Z,70.94
2018-02-06T19:15:22.364Z,70.75
2018-02-06T19:17:49.886Z,70.99
2018-02-06T19:20:17.328Z,70.86
2018-02-06T19:22:44.795Z,70.83
2018-02-06T19:25:12.253Z,70.86
2018-02-06T19:27:39.896Z,70.65
2018-02-06T19:30:07.344Z,70.52
2018-02-06T19:32:34.817Z,70.50
2018-02-06T19:35:02.322Z,69.95
2018-02-06T19:37:29.781Z,69.85
2018-02-06T19:39:57.320Z,70.12
2018-02-06T19:42:24.838Z,69.51
2018-02-06T19:44:52.374Z,69.06
2018-02-06T19:47:19.829Z,69.20
2018-02-06T19:49:47.301Z,68.85
2018-02-06T19:52:14.763Z,69.14
2018-02-06T19:54:42.238Z,68.75
2018-02-06T19:57:09.692Z,68.48
2018-02-06T19:59:37.156Z,68.41
2018-02-06T20:02:04.634Z,69.12
2018-02-06T20:06:58.868Z,68.01
2018-02-06T20:09:26.562Z,67.92
2018-02-06T20:11:54.141Z,67.76
2018-02-06T20:14:21.604Z,68.41
2018-02-06T20:16:49.146Z,67.92
2018-02-06T20:19:16.599Z,67.61
2018-02-06T20:21:44.115Z,67.74
2018-02-06T20:24:11.675Z,67.78
2018-02-06T20:26:39.191Z,67.46
2018-02-06T20:29:06.648Z,67.61
2018-02-06T20:31:34.249Z,67.09
2018-02-06T20:34:01.784Z,67.05
2018-02-06T20:36:29.270Z,66.48
2018-02-06T20:38:56.744Z,66.98
2018-02-06T20:41:24.208Z,66.71
2018-02-06T20:43:51.717Z,66.83
2018-02-06T20:46:19.222Z,67.11
2018-02-06T20:48:46.814Z,67.03
2018-02-06T20:51:14.310Z,67.27
2018-02-06T20:53:41.776Z,67.14
2018-02-06T20:56:09.235Z,67.24
2018-02-06T20:58:36.702Z,67.76
2018-02-06T21:01:04.262Z,68.28
2018-02-06T21:03:31.815Z,69.37
2018-02-06T21:05:59.275Z,69.76
2018-02-06T21:08:26.986Z,71.05
2018-02-06T21:10:54.526Z,71.71
2018-02-06T21:13:22.073Z,70.16
2018-02-06T21:15:49.547Z,69.90
2018-02-06T21:18:16.994Z,70.42
2018-02-06T21:20:44.467Z,69.31
2018-02-06T21:23:11.916Z,69.55
2018-02-06T21:25:39.395Z,70.02
2018-02-06T21:28:06.860Z,69.78
2018-02-06T21:30:34.426Z,69.68
2018-02-06T21:33:01.926Z,70.00
2018-02-06T21:35:29.368Z,69.69
2018-02-06T21:37:56.890Z,69.68
2018-02-06T21:40:24.452Z,69.72
2018-02-06T21:42:51.978Z,69.64
2018-02-06T21:45:19.490Z,69.35
2018-02-06T21:47:46.967Z,69.39
2018-02-06T21:50:14.446Z,69.00
2018-02-06T21:52:41.915Z,68.96
2018-02-06T21:55:09.389Z,68.92
2018-02-06T21:57:36.852Z,69.18
2018-02-06T22:00:04.320Z,69.20
2018-02-06T22:02:31.794Z,69.56
2018-02-06T22:04:59.281Z,69.45
2018-02-06T22:07:26.788Z,69.12
2018-02-06T22:09:54.273Z,69.14
2018-02-06T22:12:21.739Z,69.31
2018-02-06T22:14:49.231Z,69.41
2018-02-06T22:17:16.731Z,69.58
2018-02-06T22:19:44.242Z,69.32
2018-02-06T22:22:11.676Z,69.70
2018-02-06T22:24:39.125Z,69.56
2018-02-06T22:27:06.582Z,69.36
2018-02-06T22:29:34.032Z,69.34
2018-02-06T22:32:01.497Z,69.50
2018-02-06T22:34:29.014Z,69.71
2018-02-06T22:36:56.506Z,69.91
2018-02-06T22:39:23.973Z,70.01
2018-02-06T22:41:51.437Z,70.15
2018-02-06T22:44:18.877Z,70.37
2018-02-06T22:46:46.566Z,70.08
2018-02-06T22:49:14.012Z,70.12
2018-02-06T22:51:41.504Z,70.35
2018-02-06T22:54:08.988Z,70.23
2018-02-06T22:56:36.444Z,70.45
2018-02-06T22:59:03.914Z,70.46
2018-02-06T23:01:31.381Z,70.37
2018-02-06T23:04:01.827Z,70.49
2018-02-06T23:06:29.299Z,70.56
2018-02-06T23:08:56.760Z,70.71
2018-02-06T23:11:24.233Z,70.79
2018-02-06T23:13:51.703Z,70.89
2018-02-06T23:16:19.169Z,71.25
2018-02-06T23:18:46.670Z,70.80
2018-02-06T23:21:14.126Z,71.00
2018-02-06T23:23:41.603Z,71.10
2018-02-06T23:26:09.064Z,71.00
2018-02-06T23:28:36.531Z,70.91
2018-02-06T23:31:04.002Z,70.86
2018-02-06T23:33:31.454Z,70.87
2018-02-06T23:35:58.921Z,70.75
2018-02-06T23:38:26.399Z,70.73
2018-02-06T23:40:53.868Z,70.73
2018-02-06T23:43:21.336Z,70.62
2018-02-06T23:45:48.792Z,70.72
2018-02-06T23:48:16.286Z,70.62
2018-02-06T23:50:43.764Z,70.64
2018-02-06T23:53:11.266Z,70.24
2018-02-06T23:55:38.770Z,70.13
2018-02-06T23:58:06.247Z,69.80
